Kamen'-na-Obi, Russia
Current Conditions -  °F | °C
As of 4:00 AM on Sunday 23 Nov 2014 (Local Time) from UNBB Reporting Station
Blowing Snow Blowing Snow  
Wind Chill: -13°   Ceiling: 2600
Heat Index: -5°   Visibility: 6mi
Dew Point: -8°   Wind: 20mph
Humidity: 80%   Direction: 220°SW
Pressure: 30"   Gusts: 31mph
Location:  53.82°N, 81.27°E
Report Text: UNBB 222100Z 22009G14MPS 9000 DRSN BKN026 M05/M08 Q1016 NOSIGRMK QFE739/0986 24800550
Loading
Personal Weather Stations






























Interactive Weather Map New forecast layout! Learn more

10-Day Weather Forecast

Advertisements
Track Severe Weather on mobile